KMCC

Mc Clellan Airfield Airport

Sacramento, California, USA
METAR KMCC 182330Z AUTO 25006KT 10SM CLR 37/08 A2993 RMK AO2
Observed Flight Rules
Aug-18 @ 23:30 UTC (15 minutes ago) Visual Flight Rules
Wind Visibility Clouds
250° at 6 knots 10 miles
  • Clear skies
Temperatures Readings
Current 37°C / 99°F
Dewpoint 8°C / 46°F
Humidity 17%
Altimeter 29.93" Hg
Pressure 1014 hPa
Elevation 23
METAR KMCC 182330Z AUTO 25006KT 10SM CLR 37/08 A2993 RMK AO2
Observed Flight Rules
Aug-18 @ 23:30 UTC
(15 minutes ago)
VFR
Wind Visibility
250° at 6 knots 10 miles
Clouds
  • Clear skies
Temperature Dewpoint
37°C / 99°F 8°C / 46°F
Humidity Altimeter Pressure
17% 29.93" Hg 1014 hPa